Time;durP1;ratioP1;P1;durP2;ratioP2;P2;SDS_P1;SDS_P2;PMS_P1;PMS_P2;Temp;Humidity;BMP_temperature;BMP_pressure;BME280_temperature;BME280_humidity;BME280_pressure;Samples;Min_cycle;Max_cycle;Signal;HPM_P1;HPM_P2
2022/09/24 00:02:20;;;;;;;0.20;0.10;;;;;;;;;;4948953;28;20129;-84
2022/09/24 00:04:46;;;;;;;0.20;0.10;;;;;;;;;;4917515;28;20073;-85
2022/09/24 00:07:12;;;;;;;0.20;0.10;;;;;;;;;;4950818;28;20039;-85
2022/09/24 00:09:38;;;;;;;0.20;0.10;;;;;;;;;;4917710;28;20126;-84
2022/09/24 00:12:04;;;;;;;0.20;0.20;;;;;;;;;;4918452;28;20031;-85
2022/09/24 00:14:30;;;;;;;0.20;0.10;;;;;;;;;;4947493;28;20299;-85
2022/09/24 00:16:57;;;;;;;0.20;0.10;;;;;;;;;;4914901;28;20074;-85
2022/09/24 00:19:23;;;;;;;0.20;0.20;;;;;;;;;;4915541;28;20038;-85
2022/09/24 00:21:49;;;;;;;0.20;0.10;;;;;;;;;;4913432;28;20390;-84
2022/09/24 00:27:02;;;;;;;0.40;0.20;;;;;;;;;;4949418;28;20137;-86
2022/09/24 00:29:30;;;;;;;0.20;0.10;;;;;;;;;;4964721;28;20066;-85
2022/09/24 00:31:56;;;;;;;0.20;0.10;;;;;;;;;;4918567;28;20043;-86
2022/09/24 00:34:23;;;;;;;0.20;0.10;;;;;;;;;;4949010;28;20042;-85
2022/09/24 00:36:49;;;;;;;0.20;0.10;;;;;;;;;;4916575;28;20095;-86
2022/09/24 00:39:15;;;;;;;0.20;0.10;;;;;;;;;;4949631;28;20081;-85
2022/09/24 00:41:47;;;;;;;0.40;0.40;;;;;;;;;;4947168;28;20133;-89
2022/09/24 00:44:32;;;;;;;0.20;0.10;;;;;;;;;;4949712;28;20041;-87
2022/09/24 00:46:58;;;;;;;0.20;0.10;;;;;;;;;;4951573;28;20053;-88
2022/09/24 00:49:24;;;;;;;0.20;0.10;;;;;;;;;;4952159;28;20149;-86
2022/09/24 00:51:57;;;;;;;0.20;0.10;;;;;;;;;;4923034;28;20113;-86
2022/09/24 00:54:25;;;;;;;0.20;0.15;;;;;;;;;;4937587;28;20042;-85
2022/09/24 00:56:52;;;;;;;0.20;0.10;;;;;;;;;;4956564;28;20041;-86
2022/09/24 00:59:19;;;;;;;0.40;0.40;;;;;;;;;;4935474;28;20101;-86
2022/09/24 01:01:48;;;;;;;0.20;0.10;;;;;;;;;;4930225;28;20125;-87
2022/09/24 01:04:24;;;;;;;0.20;0.10;;;;;;;;;;4938649;28;20053;-87
2022/09/24 01:06:51;;;;;;;0.20;0.10;;;;;;;;;;4933740;28;20042;-87
2022/09/24 01:09:18;;;;;;;0.20;0.10;;;;;;;;;;4950186;28;20055;-87
2022/09/24 01:12:03;;;;;;;0.20;0.10;;;;;;;;;;4937137;28;20072;-87
2022/09/24 01:14:48;;;;;;;0.20;0.20;;;;;;;;;;4953231;28;20047;-86
2022/09/24 01:17:17;;;;;;;0.20;0.17;;;;;;;;;;4936401;28;20116;-86
2022/09/24 01:20:02;;;;;;;0.20;0.15;;;;;;;;;;4934841;28;20043;-87
2022/09/24 01:22:40;;;;;;;0.55;0.30;;;;;;;;;;4934768;28;20042;-87
2022/09/24 01:25:20;;;;;;;0.50;0.30;;;;;;;;;;4933368;28;20505;-85
2022/09/24 01:28:05;;;;;;;0.20;0.10;;;;;;;;;;4936846;28;20465;-84
2022/09/24 01:30:33;;;;;;;0.20;0.10;;;;;;;;;;4948185;28;20516;-86
2022/09/24 01:33:03;;;;;;;0.20;0.10;;;;;;;;;;4948521;28;20038;-85
2022/09/24 01:35:38;;;;;;;0.20;0.10;;;;;;;;;;4946774;28;20038;-86
2022/09/24 01:38:12;;;;;;;0.20;0.10;;;;;;;;;;4934314;28;20044;-86
2022/09/24 01:40:38;;;;;;;0.20;0.10;;;;;;;;;;4949195;28;20041;-86
2022/09/24 01:43:06;;;;;;;0.20;0.10;;;;;;;;;;4949333;28;20226;-86
2022/09/24 01:45:32;;;;;;;0.20;0.10;;;;;;;;;;4946080;28;20125;-86
2022/09/24 01:48:00;;;;;;;0.28;0.25;;;;;;;;;;4947917;28;20505;-86
2022/09/24 01:50:27;;;;;;;0.20;0.10;;;;;;;;;;4947176;28;20122;-86
2022/09/24 01:53:04;;;;;;;0.45;0.43;;;;;;;;;;4931057;28;20122;-86
2022/09/24 01:55:33;;;;;;;0.20;0.10;;;;;;;;;;4950202;28;20383;-85
2022/09/24 01:58:03;;;;;;;0.32;0.30;;;;;;;;;;4946606;28;20102;-86
2022/09/24 02:00:29;;;;;;;0.55;0.30;;;;;;;;;;4947407;28;21842;-85
2022/09/24 02:03:19;;;;;;;0.20;0.10;;;;;;;;;;4946721;28;20046;-86
2022/09/24 02:05:51;;;;;;;0.25;0.15;;;;;;;;;;4923129;28;20406;-85
2022/09/24 02:08:21;;;;;;;0.30;0.30;;;;;;;;;;4946429;28;20552;-86
2022/09/24 02:10:54;;;;;;;0.22;0.22;;;;;;;;;;4947790;28;20494;-85
2022/09/24 02:13:23;;;;;;;0.20;0.10;;;;;;;;;;4961510;28;20553;-86
2022/09/24 02:15:51;;;;;;;0.20;0.10;;;;;;;;;;4932124;28;20397;-85
2022/09/24 02:18:19;;;;;;;0.20;0.10;;;;;;;;;;4947893;28;20043;-85
2022/09/24 02:20:46;;;;;;;0.20;0.10;;;;;;;;;;4947896;28;20047;-86
2022/09/24 02:23:14;;;;;;;0.20;0.10;;;;;;;;;;4948607;28;20050;-86
2022/09/24 02:25:52;;;;;;;0.20;0.10;;;;;;;;;;4944505;28;20085;-85
2022/09/24 02:28:18;;;;;;;0.30;0.20;;;;;;;;;;4941309;28;20126;-86
2022/09/24 02:30:48;;;;;;;0.20;0.10;;;;;;;;;;4915824;28;20178;-86
2022/09/24 02:36:00;;;;;;;0.20;0.10;;;;;;;;;;4959916;28;20540;-85
2022/09/24 02:38:26;;;;;;;0.20;0.17;;;;;;;;;;4912942;28;20216;-85
2022/09/24 02:40:53;;;;;;;0.30;0.20;;;;;;;;;;4927297;28;22363;-84
2022/09/24 02:43:19;;;;;;;0.20;0.10;;;;;;;;;;4916561;28;20422;-85
2022/09/24 02:45:45;;;;;;;0.50;0.20;;;;;;;;;;4928844;28;20039;-85
2022/09/24 02:48:11;;;;;;;0.20;0.10;;;;;;;;;;4916602;28;20134;-85
2022/09/24 02:50:37;;;;;;;0.20;0.10;;;;;;;;;;4947403;28;20047;-85
2022/09/24 02:53:03;;;;;;;0.35;0.13;;;;;;;;;;4943982;28;20444;-85
2022/09/24 02:55:29;;;;;;;0.30;0.25;;;;;;;;;;4931653;28;20668;-86
2022/09/24 02:57:55;;;;;;;0.20;0.20;;;;;;;;;;4946522;28;20042;-86
2022/09/24 03:00:21;;;;;;;0.20;0.10;;;;;;;;;;4917212;28;20177;-87
2022/09/24 03:02:47;;;;;;;0.20;0.10;;;;;;;;;;4905243;28;20050;-85
2022/09/24 03:05:17;;;;;;;0.20;0.10;;;;;;;;;;4916836;28;20047;-86
2022/09/24 03:07:43;;;;;;;0.20;0.10;;;;;;;;;;4964088;28;20474;-87
2022/09/24 03:10:09;;;;;;;0.20;0.10;;;;;;;;;;4929054;28;20453;-86
2022/09/24 03:12:36;;;;;;;0.20;0.10;;;;;;;;;;4917484;28;20034;-86
2022/09/24 03:15:02;;;;;;;0.50;0.35;;;;;;;;;;4947476;28;20047;-85
2022/09/24 03:17:28;;;;;;;0.22;0.20;;;;;;;;;;4945906;28;20118;-87
2022/09/24 03:19:54;;;;;;;0.63;0.50;;;;;;;;;;4928270;28;20406;-85
2022/09/24 03:22:20;;;;;;;0.20;0.10;;;;;;;;;;4945916;28;20493;-85
2022/09/24 03:24:46;;;;;;;0.20;0.10;;;;;;;;;;4932078;28;20683;-85
2022/09/24 03:27:12;;;;;;;0.20;0.10;;;;;;;;;;4935562;28;20626;-85
2022/09/24 03:32:23;;;;;;;0.20;0.10;;;;;;;;;;4933114;28;20098;-84
2022/09/24 03:34:49;;;;;;;0.20;0.10;;;;;;;;;;4948228;28;20042;-85
2022/09/24 03:37:15;;;;;;;0.20;0.20;;;;;;;;;;4942768;28;20122;-85
2022/09/24 03:39:41;;;;;;;0.20;0.10;;;;;;;;;;4918944;28;20142;-85
2022/09/24 03:42:07;;;;;;;0.20;0.10;;;;;;;;;;4918939;28;20046;-85
2022/09/24 03:44:33;;;;;;;0.20;0.10;;;;;;;;;;4927259;28;20053;-85
2022/09/24 03:47:00;;;;;;;0.30;0.20;;;;;;;;;;4942670;28;20070;-85
2022/09/24 03:49:26;;;;;;;0.20;0.10;;;;;;;;;;4947223;28;20702;-85
2022/09/24 03:51:52;;;;;;;0.20;0.17;;;;;;;;;;4966190;28;20520;-85
2022/09/24 03:54:18;;;;;;;0.20;0.10;;;;;;;;;;4917368;28;20035;-85
2022/09/24 03:56:44;;;;;;;0.25;0.10;;;;;;;;;;4950018;28;20140;-85
2022/09/24 03:59:10;;;;;;;0.20;0.10;;;;;;;;;;4915765;28;20051;-85
2022/09/24 04:01:37;;;;;;;0.20;0.10;;;;;;;;;;4964735;28;20118;-85
2022/09/24 04:04:03;;;;;;;0.30;0.20;;;;;;;;;;4932315;28;20054;-86
2022/09/24 04:06:30;;;;;;;0.20;0.20;;;;;;;;;;4933110;28;20068;-85
2022/09/24 04:08:57;;;;;;;0.30;0.10;;;;;;;;;;4933033;28;20109;-85
2022/09/24 04:11:23;;;;;;;0.20;0.10;;;;;;;;;;4916677;28;20517;-85
2022/09/24 04:13:49;;;;;;;0.20;0.20;;;;;;;;;;4946532;28;20046;-84
2022/09/24 04:16:16;;;;;;;0.20;0.10;;;;;;;;;;4917904;28;20045;-85
2022/09/24 04:18:42;;;;;;;0.20;0.10;;;;;;;;;;4963290;28;20046;-85
2022/09/24 04:21:08;;;;;;;0.20;0.10;;;;;;;;;;4964611;28;20580;-85
2022/09/24 04:23:34;;;;;;;0.20;0.10;;;;;;;;;;4932121;28;20065;-84
2022/09/24 04:26:01;;;;;;;0.20;0.10;;;;;;;;;;4932687;28;20043;-84
2022/09/24 04:28:27;;;;;;;0.20;0.10;;;;;;;;;;4930016;28;20050;-85
2022/09/24 04:30:53;;;;;;;0.20;0.10;;;;;;;;;;4916724;28;20050;-85
2022/09/24 04:33:19;;;;;;;0.20;0.10;;;;;;;;;;4946168;28;20042;-85
2022/09/24 04:35:45;;;;;;;0.20;0.10;;;;;;;;;;4965333;28;20042;-84
2022/09/24 04:38:12;;;;;;;0.50;0.47;;;;;;;;;;4916871;28;20474;-85
2022/09/24 04:40:38;;;;;;;0.20;0.10;;;;;;;;;;4932295;28;20417;-84
2022/09/24 04:43:05;;;;;;;0.20;0.10;;;;;;;;;;4916530;28;20070;-85
2022/09/24 04:45:31;;;;;;;0.20;0.10;;;;;;;;;;4915721;28;20043;-84
2022/09/24 04:47:57;;;;;;;0.20;0.10;;;;;;;;;;4947634;28;20046;-85
2022/09/24 04:50:25;;;;;;;0.20;0.10;;;;;;;;;;4915869;28;20046;-85
2022/09/24 04:52:51;;;;;;;0.20;0.10;;;;;;;;;;4947811;28;20039;-85
2022/09/24 04:55:19;;;;;;;0.20;0.10;;;;;;;;;;4946348;28;20089;-85
2022/09/24 04:57:45;;;;;;;0.20;0.10;;;;;;;;;;4916554;28;20039;-84
2022/09/24 05:00:14;;;;;;;0.20;0.10;;;;;;;;;;4932356;28;20117;-85
2022/09/24 05:02:40;;;;;;;0.20;0.13;;;;;;;;;;4931927;28;20532;-85
2022/09/24 05:05:06;;;;;;;0.20;0.10;;;;;;;;;;4930291;28;20604;-84
2022/09/24 05:07:32;;;;;;;0.20;0.10;;;;;;;;;;4929602;28;20038;-85
2022/09/24 05:09:58;;;;;;;0.20;0.10;;;;;;;;;;4914581;28;20422;-85
2022/09/24 05:12:24;;;;;;;0.20;0.10;;;;;;;;;;4915526;28;20034;-85
2022/09/24 05:14:50;;;;;;;1.20;0.20;;;;;;;;;;4927779;28;20039;-85
2022/09/24 05:17:17;;;;;;;0.20;0.10;;;;;;;;;;4947530;28;20046;-86
2022/09/24 05:19:43;;;;;;;0.20;0.10;;;;;;;;;;4960936;28;20086;-85
2022/09/24 05:22:09;;;;;;;0.20;0.10;;;;;;;;;;4947157;28;20126;-86
2022/09/24 05:24:35;;;;;;;0.20;0.10;;;;;;;;;;4962913;28;20038;-85
2022/09/24 05:27:10;;;;;;;0.20;0.00;;;;;;;;;;4916289;28;20097;-85
2022/09/24 05:29:37;;;;;;;0.40;0.30;;;;;;;;;;4919037;28;20078;-86
2022/09/24 05:32:04;;;;;;;0.20;0.10;;;;;;;;;;4950639;28;20066;-85
2022/09/24 05:34:31;;;;;;;1.08;0.20;;;;;;;;;;4975233;23;20045;-84
2022/09/24 05:36:57;;;;;;;0.20;0.10;;;;;;;;;;4968084;28;20136;-84
2022/09/24 05:39:23;;;;;;;0.20;0.10;;;;;;;;;;4994249;28;20418;-85
2022/09/24 05:41:49;;;;;;;0.20;0.10;;;;;;;;;;4962079;28;20038;-85
2022/09/24 05:44:19;;;;;;;0.20;0.10;;;;;;;;;;4964699;28;20055;-84
2022/09/24 05:46:45;;;;;;;0.20;0.10;;;;;;;;;;4948316;28;20050;-84
2022/09/24 05:49:11;;;;;;;0.63;0.10;;;;;;;;;;4965478;28;20052;-84
2022/09/24 05:51:37;;;;;;;0.20;0.10;;;;;;;;;;4963064;28;20625;-85
2022/09/24 05:54:03;;;;;;;0.20;0.10;;;;;;;;;;4979283;28;20447;-85
2022/09/24 05:56:30;;;;;;;0.20;0.10;;;;;;;;;;4975153;28;20839;-85
2022/09/24 05:58:56;;;;;;;0.20;0.10;;;;;;;;;;4969398;28;20369;-85
2022/09/24 06:01:23;;;;;;;0.20;0.10;;;;;;;;;;4974655;28;20042;-85
2022/09/24 06:03:49;;;;;;;0.20;0.10;;;;;;;;;;4975023;28;20049;-85
2022/09/24 06:06:15;;;;;;;0.20;0.10;;;;;;;;;;4961417;28;20125;-84
2022/09/24 06:08:41;;;;;;;0.20;0.10;;;;;;;;;;4964172;28;20038;-85
2022/09/24 06:11:07;;;;;;;0.20;0.10;;;;;;;;;;4982450;28;20484;-85
2022/09/24 06:13:34;;;;;;;0.20;0.10;;;;;;;;;;4950079;28;20042;-85
2022/09/24 06:16:04;;;;;;;0.20;0.10;;;;;;;;;;4976908;28;20048;-85
2022/09/24 06:18:33;;;;;;;0.43;0.22;;;;;;;;;;4977755;28;20050;-85
2022/09/24 06:21:04;;;;;;;0.20;0.10;;;;;;;;;;4977621;28;20045;-85
2022/09/24 06:23:31;;;;;;;0.40;0.40;;;;;;;;;;4976659;28;20053;-85
2022/09/24 06:25:57;;;;;;;0.22;0.22;;;;;;;;;;4976246;28;20074;-84
2022/09/24 06:28:26;;;;;;;0.20;0.10;;;;;;;;;;4967875;28;20053;-84
2022/09/24 06:30:53;;;;;;;0.20;0.10;;;;;;;;;;4959086;28;20061;-84
2022/09/24 06:33:19;;;;;;;0.20;0.10;;;;;;;;;;4973046;28;20042;-84
2022/09/24 06:35:47;;;;;;;0.20;0.10;;;;;;;;;;4962007;28;20046;-83
2022/09/24 06:38:14;;;;;;;1.70;0.10;;;;;;;;;;4977539;28;20038;-84
2022/09/24 06:40:40;;;;;;;0.20;0.10;;;;;;;;;;4958981;28;20116;-84
2022/09/24 06:43:06;;;;;;;0.20;0.10;;;;;;;;;;4974271;28;20074;-83
2022/09/24 06:45:33;;;;;;;0.20;0.10;;;;;;;;;;4967030;28;20049;-84
2022/09/24 06:48:00;;;;;;;0.20;0.10;;;;;;;;;;4973187;28;20729;-83
2022/09/24 06:50:27;;;;;;;0.20;0.10;;;;;;;;;;4961863;28;21421;-85
2022/09/24 06:52:53;;;;;;;0.20;0.10;;;;;;;;;;4967081;28;20121;-85
2022/09/24 06:55:19;;;;;;;0.20;0.10;;;;;;;;;;4966131;28;20046;-84
2022/09/24 06:57:45;;;;;;;0.20;0.10;;;;;;;;;;4963246;28;20038;-83
2022/09/24 07:00:12;;;;;;;0.73;0.20;;;;;;;;;;4964374;28;20038;-82
2022/09/24 07:02:39;;;;;;;0.20;0.10;;;;;;;;;;4963824;28;20046;-84
2022/09/24 07:05:05;;;;;;;0.20;0.10;;;;;;;;;;4967739;28;20041;-83
2022/09/24 07:07:32;;;;;;;0.20;0.10;;;;;;;;;;4976068;28;20050;-84
2022/09/24 07:10:04;;;;;;;0.20;0.10;;;;;;;;;;4964101;28;20629;-82
2022/09/24 07:12:31;;;;;;;0.20;0.10;;;;;;;;;;4974710;28;20052;-83
2022/09/24 07:14:59;;;;;;;0.20;0.10;;;;;;;;;;4963844;28;20041;-83
2022/09/24 07:17:25;;;;;;;0.20;0.10;;;;;;;;;;4963737;28;20552;-83
2022/09/24 07:19:51;;;;;;;0.20;0.15;;;;;;;;;;4986718;28;20092;-83
2022/09/24 07:22:17;;;;;;;0.20;0.10;;;;;;;;;;4963705;28;20457;-81
2022/09/24 07:24:43;;;;;;;0.20;0.10;;;;;;;;;;4961477;28;20476;-83
2022/09/24 07:27:09;;;;;;;0.20;0.10;;;;;;;;;;4978180;28;20038;-82
2022/09/24 07:29:35;;;;;;;0.20;0.10;;;;;;;;;;4963442;28;20117;-83
2022/09/24 07:32:02;;;;;;;0.20;0.10;;;;;;;;;;4977773;28;20630;-82
2022/09/24 07:34:28;;;;;;;0.20;0.10;;;;;;;;;;4973140;28;20041;-83
2022/09/24 07:36:55;;;;;;;0.20;0.10;;;;;;;;;;4963439;28;20088;-82
2022/09/24 07:39:21;;;;;;;0.20;0.10;;;;;;;;;;4959008;28;20034;-83
2022/09/24 07:41:47;;;;;;;0.20;0.10;;;;;;;;;;4966357;28;20042;-82
2022/09/24 07:44:13;;;;;;;0.20;0.10;;;;;;;;;;4965377;28;20493;-83
2022/09/24 07:46:40;;;;;;;0.20;0.20;;;;;;;;;;4969809;28;20062;-82
2022/09/24 07:49:06;;;;;;;0.20;0.10;;;;;;;;;;4969976;28;20475;-83
2022/09/24 07:51:32;;;;;;;0.20;0.00;;;;;;;;;;4964276;28;20042;-83
2022/09/24 07:53:58;;;;;;;0.20;0.17;;;;;;;;;;4964204;28;20075;-83
2022/09/24 07:56:24;;;;;;;0.20;0.10;;;;;;;;;;4977997;28;20508;-83
2022/09/24 07:58:51;;;;;;;0.20;0.10;;;;;;;;;;4963819;28;20398;-83
2022/09/24 08:01:18;;;;;;;0.20;0.10;;;;;;;;;;4963145;28;20053;-82
2022/09/24 08:03:45;;;;;;;0.20;0.10;;;;;;;;;;4969034;28;20046;-81
2022/09/24 08:06:11;;;;;;;0.20;0.10;;;;;;;;;;4976158;28;20069;-83
2022/09/24 08:08:42;;;;;;;0.20;0.10;;;;;;;;;;4961370;28;20666;-83
2022/09/24 08:11:09;;;;;;;0.20;0.10;;;;;;;;;;4973323;28;20067;-82
2022/09/24 08:13:35;;;;;;;0.20;0.10;;;;;;;;;;4958429;28;20045;-83
2022/09/24 08:16:02;;;;;;;0.20;0.10;;;;;;;;;;4955092;28;20121;-82
2022/09/24 08:18:30;;;;;;;0.20;0.10;;;;;;;;;;4964265;28;20042;-82
2022/09/24 08:20:57;;;;;;;0.20;0.10;;;;;;;;;;4966317;28;20060;-83
2022/09/24 08:23:23;;;;;;;0.20;0.10;;;;;;;;;;4963710;28;20046;-83
2022/09/24 08:25:49;;;;;;;0.20;0.10;;;;;;;;;;4967641;28;20043;-82
2022/09/24 08:28:16;;;;;;;0.20;0.10;;;;;;;;;;4959444;28;20432;-80
2022/09/24 08:30:43;;;;;;;0.20;0.10;;;;;;;;;;4954857;28;20046;-79
2022/09/24 08:33:09;;;;;;;0.20;0.10;;;;;;;;;;4966361;28;20140;-80
2022/09/24 08:35:37;;;;;;;0.20;0.10;;;;;;;;;;4975564;28;20069;-80
2022/09/24 08:38:03;;;;;;;0.20;0.10;;;;;;;;;;4978104;28;20050;-80
2022/09/24 08:40:31;;;;;;;0.20;0.10;;;;;;;;;;4950757;28;20045;-81
2022/09/24 08:43:02;;;;;;;0.20;0.10;;;;;;;;;;4965076;28;20485;-80
2022/09/24 08:48:20;;;;;;;0.20;0.10;;;;;;;;;;4960381;28;20041;-80
2022/09/24 08:50:59;;;;;;;0.20;0.10;;;;;;;;;;4968224;28;20052;-81
2022/09/24 08:53:45;;;;;;;0.20;0.10;;;;;;;;;;4976626;28;20441;-80
2022/09/24 08:56:11;;;;;;;0.20;0.10;;;;;;;;;;4984694;28;20058;-80
2022/09/24 08:58:55;;;;;;;0.20;0.10;;;;;;;;;;4977126;28;20087;-84
2022/09/24 09:01:21;;;;;;;0.20;0.10;;;;;;;;;;4986514;28;20042;-82
2022/09/24 09:03:57;;;;;;;0.20;0.10;;;;;;;;;;4961729;28;20050;-84
2022/09/24 09:06:44;;;;;;;0.20;0.10;;;;;;;;;;4968128;28;20069;-84
2022/09/24 09:09:19;;;;;;;0.20;0.10;;;;;;;;;;4954887;28;20050;-84
2022/09/24 09:11:47;;;;;;;0.20;0.10;;;;;;;;;;4975444;28;20477;-85
2022/09/24 09:14:19;;;;;;;0.20;0.10;;;;;;;;;;4962931;28;20042;-85
2022/09/24 09:16:45;;;;;;;0.20;0.10;;;;;;;;;;4965834;28;20468;-85
2022/09/24 09:19:12;;;;;;;0.20;0.10;;;;;;;;;;4978322;28;20512;-86
2022/09/24 09:21:44;;;;;;;0.20;0.10;;;;;;;;;;4981660;28;20072;-83
2022/09/24 09:24:24;;;;;;;0.20;0.10;;;;;;;;;;4995857;28;20143;-85
2022/09/24 09:26:53;;;;;;;0.20;0.10;;;;;;;;;;4975850;28;20046;-83
2022/09/24 09:29:20;;;;;;;0.20;0.10;;;;;;;;;;4958989;28;20067;-83
2022/09/24 09:31:49;;;;;;;0.20;0.10;;;;;;;;;;4975274;28;20037;-83
2022/09/24 09:34:18;;;;;;;0.20;0.10;;;;;;;;;;4974809;28;20042;-83
2022/09/24 09:37:03;;;;;;;0.20;0.10;;;;;;;;;;4979281;28;20100;-85
2022/09/24 09:39:32;;;;;;;0.20;0.10;;;;;;;;;;4975115;28;20050;-85
2022/09/24 09:42:17;;;;;;;0.20;0.10;;;;;;;;;;4977041;28;20077;-85
2022/09/24 09:44:45;;;;;;;0.20;0.10;;;;;;;;;;4965601;28;20049;-86
2022/09/24 09:47:20;;;;;;;0.20;0.10;;;;;;;;;;4947260;28;20503;-84
2022/09/24 09:49:48;;;;;;;0.20;0.10;;;;;;;;;;4979721;28;20533;-85
2022/09/24 09:52:23;;;;;;;0.20;0.10;;;;;;;;;;4972073;28;20084;-86
2022/09/24 09:54:49;;;;;;;0.20;0.10;;;;;;;;;;4961308;28;20180;-84
2022/09/24 09:57:18;;;;;;;0.20;0.10;;;;;;;;;;4960479;28;20117;-85
2022/09/24 09:59:48;;;;;;;0.20;0.10;;;;;;;;;;4977152;28;20050;-84
2022/09/24 10:02:44;;;;;;;0.20;0.10;;;;;;;;;;4961491;28;20463;-85
2022/09/24 10:05:27;;;;;;;0.20;0.10;;;;;;;;;;4961716;28;20108;-85
2022/09/24 10:07:54;;;;;;;0.20;0.10;;;;;;;;;;4963459;28;20042;-87
2022/09/24 10:10:27;;;;;;;0.20;0.10;;;;;;;;;;4952643;28;20042;-84
2022/09/24 10:16:02;;;;;;;0.20;0.10;;;;;;;;;;4969353;28;20091;-85
2022/09/24 10:18:41;;;;;;;0.20;0.10;;;;;;;;;;4986371;28;20054;-85
2022/09/24 10:21:34;;;;;;;0.20;0.10;;;;;;;;;;4961346;28;20069;-85
2022/09/24 10:24:07;;;;;;;0.20;0.10;;;;;;;;;;4960432;28;20053;-86
2022/09/24 10:26:54;;;;;;;0.20;0.10;;;;;;;;;;4982495;28;20560;-86
2022/09/24 10:32:20;;;;;;;0.20;0.10;;;;;;;;;;4978381;28;20081;-86
2022/09/24 10:35:06;;;;;;;0.20;0.10;;;;;;;;;;4978174;28;20117;-84
2022/09/24 10:37:49;;;;;;;0.20;0.10;;;;;;;;;;4981241;28;20856;-85
2022/09/24 10:40:15;;;;;;;0.20;0.10;;;;;;;;;;4972131;28;20127;-86
2022/09/24 10:43:02;;;;;;;0.20;0.10;;;;;;;;;;4979055;28;20489;-86
2022/09/24 10:49:07;;;;;;;0.20;0.10;;;;;;;;;;4981183;28;20050;-86
2022/09/24 10:54:48;;;;;;;;;;;;;;;;;;4934561;28;20045;-86
2022/09/24 10:57:30;;;;;;;0.20;0.10;;;;;;;;;;4983279;28;19933;-86
2022/09/24 11:00:12;;;;;;;0.20;0.10;;;;;;;;;;4970968;28;20061;-86
2022/09/24 11:02:47;;;;;;;0.20;0.10;;;;;;;;;;4991330;28;20081;-86
2022/09/24 11:05:21;;;;;;;0.20;0.10;;;;;;;;;;4988095;28;20042;-85
2022/09/24 11:08:08;;;;;;;0.20;0.10;;;;;;;;;;4991367;28;20493;-86
2022/09/24 11:10:53;;;;;;;0.20;0.10;;;;;;;;;;4969649;28;20057;-83
2022/09/24 11:13:32;;;;;;;0.20;0.10;;;;;;;;;;4975792;28;20061;-82
2022/09/24 11:16:11;;;;;;;0.20;0.10;;;;;;;;;;5003146;28;20034;-85
2022/09/24 11:18:53;;;;;;;0.20;0.10;;;;;;;;;;4968853;28;20038;-82
2022/09/24 11:21:19;;;;;;;0.20;0.10;;;;;;;;;;4991167;28;20046;-83
2022/09/24 11:24:04;;;;;;;0.20;0.10;;;;;;;;;;4979970;28;20049;-83
2022/09/24 11:26:45;;;;;;;0.20;0.10;;;;;;;;;;4984118;28;20048;-84
2022/09/24 11:29:30;;;;;;;0.20;0.10;;;;;;;;;;4982887;28;20042;-84
2022/09/24 11:32:15;;;;;;;0.20;0.10;;;;;;;;;;4975514;28;20498;-82
2022/09/24 11:34:53;;;;;;;0.20;0.10;;;;;;;;;;4999353;23;20448;-87
2022/09/24 11:37:19;;;;;;;0.20;0.10;;;;;;;;;;4959928;28;20053;-86
2022/09/24 11:39:52;;;;;;;0.20;0.10;;;;;;;;;;4956136;28;20043;-87
2022/09/24 11:42:30;;;;;;;0.20;0.10;;;;;;;;;;4975818;28;20047;-87
2022/09/24 11:45:11;;;;;;;0.20;0.10;;;;;;;;;;4942570;28;20039;-87
2022/09/24 11:47:37;;;;;;;0.20;0.10;;;;;;;;;;4972867;28;20054;-87
2022/09/24 11:50:18;;;;;;;0.20;0.10;;;;;;;;;;4952308;28;20035;-85
2022/09/24 11:52:47;;;;;;;0.20;0.10;;;;;;;;;;4951785;28;20062;-86
2022/09/24 11:55:30;;;;;;;0.20;0.10;;;;;;;;;;4950649;23;20510;-88
2022/09/24 11:58:11;;;;;;;0.20;0.10;;;;;;;;;;4932289;28;20039;-86
2022/09/24 12:00:59;;;;;;;0.20;0.10;;;;;;;;;;4919400;29;20051;-87
2022/09/24 12:03:57;;;;;;;0.20;0.10;;;;;;;;;;4916486;28;20510;-86
2022/09/24 12:06:54;;;;;;;0.20;0.10;;;;;;;;;;4918487;28;20067;-86
2022/09/24 12:09:41;;;;;;;0.20;0.10;;;;;;;;;;4956257;23;20038;-86
2022/09/24 12:12:19;;;;;;;0.20;0.10;;;;;;;;;;4960697;28;20113;-87
2022/09/24 12:14:54;;;;;;;0.20;0.10;;;;;;;;;;4973478;28;20108;-85
2022/09/24 12:17:29;;;;;;;0.20;0.10;;;;;;;;;;4971102;28;20049;-87
2022/09/24 12:20:01;;;;;;;0.20;0.10;;;;;;;;;;4942960;28;20140;-86
2022/09/24 12:22:28;;;;;;;0.20;0.10;;;;;;;;;;4949539;28;20121;-86
2022/09/24 12:25:12;;;;;;;;;;;;;;;;;;;;;
2022/09/24 12:27:39;;;;;;;0.20;0.10;;;;;;;;;;4947405;28;20126;-87
2022/09/24 12:34:04;;;;;;;0.20;0.10;;;;;;;;;;4944334;28;20055;-84
2022/09/24 12:36:55;;;;;;;0.20;0.10;;;;;;;;;;4891625;29;20043;-84
2022/09/24 12:39:23;;;;;;;0.20;0.10;;;;;;;;;;4946894;28;20097;-83
2022/09/24 12:41:57;;;;;;;0.20;0.10;;;;;;;;;;4930741;28;20482;-84
2022/09/24 12:44:30;;;;;;;0.20;0.10;;;;;;;;;;4929148;28;20098;-83
2022/09/24 12:47:13;;;;;;;0.20;0.10;;;;;;;;;;4929769;28;20077;-83
2022/09/24 12:49:50;;;;;;;0.20;0.10;;;;;;;;;;4947625;28;20414;-84
2022/09/24 12:52:18;;;;;;;0.20;0.10;;;;;;;;;;4931180;28;20043;-83
2022/09/24 12:54:45;;;;;;;0.20;0.10;;;;;;;;;;4931079;28;20042;-83
2022/09/24 12:57:22;;;;;;;0.20;0.10;;;;;;;;;;4928205;28;20417;-83
2022/09/24 12:59:50;;;;;;;0.20;0.10;;;;;;;;;;4947304;28;20521;-82
2022/09/24 13:02:18;;;;;;;0.20;0.10;;;;;;;;;;4945480;28;20035;-83
2022/09/24 13:07:56;;;;;;;0.20;0.10;;;;;;;;;;4937176;28;20199;-84
2022/09/24 13:10:31;;;;;;;0.20;0.20;;;;;;;;;;4945779;28;20859;-82
2022/09/24 13:13:01;;;;;;;0.20;0.10;;;;;;;;;;4947740;28;20050;-82
2022/09/24 13:16:08;;;;;;;0.20;0.10;;;;;;;;;;4946507;28;20070;-84
2022/09/24 13:18:35;;;;;;;0.20;0.10;;;;;;;;;;4869953;29;20512;-83
2022/09/24 13:21:07;;;;;;;0.20;0.10;;;;;;;;;;4876386;29;20100;-81
2022/09/24 13:23:36;;;;;;;1.40;0.65;;;;;;;;;;4906762;29;20075;-82
2022/09/24 13:26:11;;;;;;;0.20;0.10;;;;;;;;;;4907412;29;20199;-80
2022/09/24 13:28:59;;;;;;;0.20;0.10;;;;;;;;;;4906491;29;20059;-82
2022/09/24 13:31:51;;;;;;;0.20;0.10;;;;;;;;;;4906129;29;20096;-82
2022/09/24 13:34:29;;;;;;;0.20;0.10;;;;;;;;;;4909298;29;20047;-82
2022/09/24 13:37:00;;;;;;;0.20;0.10;;;;;;;;;;4909842;29;20231;-82
2022/09/24 13:39:40;;;;;;;0.20;0.10;;;;;;;;;;4907220;29;20054;-82
2022/09/24 13:42:25;;;;;;;0.20;0.10;;;;;;;;;;4927703;29;20150;-81
2022/09/24 13:44:53;;;;;;;0.20;0.10;;;;;;;;;;4921695;29;20117;-80
2022/09/24 13:47:35;;;;;;;0.20;0.10;;;;;;;;;;4905098;29;20035;-80
2022/09/24 13:50:20;;;;;;;0.20;0.10;;;;;;;;;;4926658;28;20173;-83
2022/09/24 13:52:58;;;;;;;0.20;0.10;;;;;;;;;;4941096;28;20041;-83
2022/09/24 13:55:30;;;;;;;0.20;0.10;;;;;;;;;;4945499;28;20108;-79
2022/09/24 13:57:57;;;;;;;0.20;0.10;;;;;;;;;;4945474;28;20070;-82
2022/09/24 14:00:26;;;;;;;0.20;0.10;;;;;;;;;;4946188;28;20125;-81
2022/09/24 14:02:57;;;;;;;0.20;0.10;;;;;;;;;;4930566;28;20456;-81
2022/09/24 14:05:24;;;;;;;0.20;0.10;;;;;;;;;;4945087;28;20050;-80
2022/09/24 14:07:59;;;;;;;0.20;0.10;;;;;;;;;;4944606;28;20039;-81
2022/09/24 14:10:25;;;;;;;0.20;0.10;;;;;;;;;;4943682;28;20406;-82
2022/09/24 14:13:20;;;;;;;0.20;0.10;;;;;;;;;;4929663;28;20043;-81
2022/09/24 14:15:50;;;;;;;0.20;0.10;;;;;;;;;;4925643;28;20050;-82
2022/09/24 14:18:16;;;;;;;0.20;0.10;;;;;;;;;;4943647;28;20051;-81
2022/09/24 14:20:42;;;;;;;0.20;0.10;;;;;;;;;;4946470;28;20035;-82
2022/09/24 14:23:14;;;;;;;0.20;0.10;;;;;;;;;;4927021;28;20398;-82
2022/09/24 14:25:40;;;;;;;0.20;0.10;;;;;;;;;;4927426;28;20082;-80
2022/09/24 14:28:10;;;;;;;0.20;0.10;;;;;;;;;;4944000;28;20568;-82
2022/09/24 14:30:39;;;;;;;0.20;0.10;;;;;;;;;;4943115;28;20778;-83
2022/09/24 14:33:07;;;;;;;0.20;0.10;;;;;;;;;;4928891;28;20429;-80
2022/09/24 14:35:34;;;;;;;0.20;0.10;;;;;;;;;;4930688;28;20125;-81
2022/09/24 14:38:00;;;;;;;0.20;0.10;;;;;;;;;;4929385;28;20046;-83
2022/09/24 14:40:27;;;;;;;0.20;0.10;;;;;;;;;;4944016;28;20042;-81
2022/09/24 14:42:56;;;;;;;0.20;0.10;;;;;;;;;;4930181;28;20085;-81
2022/09/24 14:45:36;;;;;;;0.20;0.10;;;;;;;;;;4926030;28;20070;-81
2022/09/24 14:48:04;;;;;;;0.20;0.10;;;;;;;;;;4931784;28;20049;-81
2022/09/24 14:50:34;;;;;;;0.20;0.10;;;;;;;;;;4931458;28;20073;-82
2022/09/24 14:53:00;;;;;;;0.20;0.10;;;;;;;;;;4931316;28;20125;-82
2022/09/24 14:55:37;;;;;;;0.20;0.10;;;;;;;;;;4939934;28;20494;-83
2022/09/24 14:58:03;;;;;;;0.20;0.10;;;;;;;;;;4947043;28;20039;-81
2022/09/24 15:00:32;;;;;;;0.20;0.10;;;;;;;;;;4934584;28;20045;-83
2022/09/24 15:03:04;;;;;;;0.20;0.10;;;;;;;;;;4936022;28;20050;-82
2022/09/24 15:05:30;;;;;;;0.20;0.10;;;;;;;;;;4968430;28;20043;-82
2022/09/24 15:08:16;;;;;;;0.20;0.10;;;;;;;;;;4939870;28;20073;-81
2022/09/24 15:10:50;;;;;;;0.20;0.20;;;;;;;;;;4952239;28;20054;-82
2022/09/24 15:13:20;;;;;;;0.20;0.10;;;;;;;;;;4935490;28;20065;-82
2022/09/24 15:15:50;;;;;;;0.20;0.10;;;;;;;;;;4940619;28;20107;-84
2022/09/24 15:18:17;;;;;;;0.20;0.10;;;;;;;;;;4943048;28;20078;-83
2022/09/24 15:20:43;;;;;;;0.20;0.10;;;;;;;;;;4926232;28;20047;-84
2022/09/24 15:23:09;;;;;;;0.20;0.10;;;;;;;;;;4959068;28;20038;-82
2022/09/24 15:25:36;;;;;;;0.20;0.10;;;;;;;;;;4935939;28;20386;-85
2022/09/24 15:28:02;;;;;;;0.20;0.10;;;;;;;;;;4944108;28;20043;-84
2022/09/24 15:30:28;;;;;;;0.20;0.10;;;;;;;;;;4959661;28;20031;-85
2022/09/24 15:32:55;;;;;;;0.20;0.10;;;;;;;;;;4937582;28;20049;-84
2022/09/24 15:35:21;;;;;;;0.20;0.10;;;;;;;;;;4941326;28;20031;-84